Terminal Aerodrome Forecast
Issued by NWS

Home | Current Version | Previous Version | Text Only | Print | Product List | Glossary On
Versions: 1 2 3 4 5 6 7 8 9 10 11 12 13 14 15 16 17 18 19 20 21 22 23 24 25 26 27
000
FTUS45 KGJT 020541
TAFVEL
TAF
KVEL 020541Z 0206/0306 23005KT P6SM FEW200
     FM021500 15003KT P6SM FEW200
     FM021900 21006KT P6SM FEW120 SCT200
     FM030200 24005KT P6SM SCT200=

USA.gov is the U.S. government's official web portal to all federal, state and local government web resources and services.